Lamy, New Mexico
Current Conditions -  °F | °C
As of 4:53 PM on Monday 20 Oct 2014 (Local Time) from KSAF Reporting Station
Scattered Clouds Scattered Clouds  
Wind Chill: 19°   Ceiling: Unl
Heat Index: 19°   Visibility: 10mi
Dew Point:   Wind: 9mph
Humidity: 36%   Direction: 240°WSW
Pressure: 30.16"   Gusts: NA
Location:  35.48°N, 105.88°W
Report Text: KSAF 202253Z 24008KT 10SM SCT110 19/03 A3016 RMK AO2 SLP144 T01890033
Loading
Personal Weather Stations






























Interactive Weather Map
Tropical Storm Tracking
New forecast layout! Learn more

10-Day Weather Forecast

Advertisements
Track Severe Weather on mobile